Time;durP1;ratioP1;P1;durP2;ratioP2;P2;SDS_P1;SDS_P2;PMS_P1;PMS_P2;Temp;Humidity;BMP_temperature;BMP_pressure;BME280_temperature;BME280_humidity;BME280_pressure;Samples;Min_cycle;Max_cycle;Signal;HPM_P1;HPM_P2
2022/10/01 00:02:26;;;;;;;54.08;34.55;;;;;;;28.71;72.65;98081.88;4982204;28;20058;-71
2022/10/01 00:05:11;;;;;;;54.13;33.83;;;;;;;28.77;72.22;98074.16;4989524;28;20060;-70
2022/10/01 00:08:00;;;;;;;51.42;32.03;;;;;;;28.71;72.31;98079.13;4989237;28;20458;-70
2022/10/01 00:10:43;;;;;;;50.47;33.22;;;;;;;28.78;72.27;98086.81;4988914;28;20358;-71
2022/10/01 00:13:32;;;;;;;60.03;32.15;;;;;;;28.78;72.14;98092.34;4988691;28;20042;-71
2022/10/01 00:16:25;;;;;;;50.55;31.40;;;;;;;28.77;72.51;98080.47;4987946;28;20046;-71
2022/10/01 00:19:07;;;;;;;55.38;30.63;;;;;;;28.76;71.98;98089.94;4989207;28;20066;-71
2022/10/01 00:22:02;;;;;;;50.47;30.73;;;;;;;28.73;72.36;98089.81;4973298;28;20050;-71
2022/10/01 00:24:38;;;;;;;55.25;30.10;;;;;;;28.68;72.54;98088.91;4989086;28;20045;-71
2022/10/01 00:27:28;;;;;;;52.83;30.63;;;;;;;28.69;72.20;98095.22;4989019;28;20121;-71
2022/10/01 00:30:11;;;;;;;50.97;30.35;;;;;;;28.69;71.98;98103.53;4988946;28;20477;-71
2022/10/01 00:33:06;;;;;;;54.47;31.92;;;;;;;28.72;72.23;98099.25;4988037;28;20058;-71
2022/10/01 00:35:42;;;;;;;57.10;33.53;;;;;;;28.68;71.76;98102.72;4991241;28;20070;-72
2022/10/01 00:38:39;;;;;;;52.67;32.28;;;;;;;28.65;72.03;98105.38;4988757;28;20043;-71
2022/10/01 00:41:16;;;;;;;56.97;31.92;;;;;;;28.66;71.84;98106.97;4988288;28;20046;-71
2022/10/01 00:44:28;;;;;;;44.67;31.13;;;;;;;28.65;71.80;98117.22;4991212;28;20101;-71
2022/10/01 00:47:38;;;;;;;52.10;32.88;;;;;;;28.63;72.23;98111.22;4970931;28;20098;-71
2022/10/01 00:50:32;;;;;;;56.95;32.53;;;;;;;28.60;72.09;98105.59;4971880;28;20047;-71
2022/10/01 00:53:17;;;;;;;48.67;30.33;;;;;;;28.63;71.90;98113.19;4988017;28;20054;-71
2022/10/01 00:56:13;;;;;;;58.63;32.75;;;;;;;28.57;71.40;98114.59;4991801;28;20156;-70
2022/10/01 00:59:02;;;;;;;54.58;31.77;;;;;;;28.53;72.16;98117.25;4986784;28;20458;-72
2022/10/01 01:01:51;;;;;;;55.80;34.35;;;;;;;28.52;71.61;98128.63;4987277;28;20050;-72
2022/10/01 01:04:33;;;;;;;56.03;34.15;;;;;;;28.60;71.60;98124.94;4983165;28;20121;-73
2022/10/01 01:07:22;;;;;;;55.67;32.63;;;;;;;28.70;70.96;98128.03;4988287;28;20113;-73
2022/10/01 01:10:06;;;;;;;55.92;33.17;;;;;;;28.75;71.45;98128.94;4988040;28;20078;-72
2022/10/01 01:13:01;;;;;;;54.58;31.35;;;;;;;28.75;71.10;98131.69;4986729;28;20137;-72
2022/10/01 01:15:43;;;;;;;56.50;30.63;;;;;;;28.69;70.87;98139.41;4987766;28;20057;-72
2022/10/01 01:18:57;;;;;;;51.03;30.02;;;;;;;28.77;70.84;98145.94;4987592;28;20054;-72
2022/10/01 01:21:52;;;;;;;53.83;28.77;;;;;;;28.79;71.12;98147.19;4968919;28;20050;-72
2022/10/01 01:25:05;;;;;;;47.00;30.40;;;;;;;28.81;70.84;98146.84;4974181;28;20066;-73
2022/10/01 01:28:08;;;;;;;54.65;29.85;;;;;;;28.80;70.77;98146.06;4970757;28;20423;-72
2022/10/01 01:31:09;;;;;;;53.33;28.38;;;;;;;28.80;71.12;98146.06;4987949;28;20679;-73
2022/10/01 01:33:49;;;;;;;47.55;27.63;;;;;;;28.87;70.99;98146.28;4987198;28;20034;-73
2022/10/01 01:36:46;;;;;;;53.45;29.38;;;;;;;28.92;71.11;98156.28;4993503;28;20046;-73
2022/10/01 01:39:32;;;;;;;65.38;30.05;;;;;;;28.93;70.45;98151.53;5007069;28;20534;-73
2022/10/01 01:42:36;;;;;;;51.85;31.40;;;;;;;28.97;71.31;98150.50;5006940;28;20116;-72
2022/10/01 01:45:24;;;;;;;51.08;28.65;;;;;;;29.02;70.18;98153.00;5006985;28;20050;-72
2022/10/01 01:48:14;;;;;;;65.70;30.92;;;;;;;29.01;69.05;98162.47;5006819;28;20508;-72
2022/10/01 01:51:19;;;;;;;66.70;30.13;;;;;;;28.85;69.43;98175.38;5007016;28;20053;-73
2022/10/01 01:54:08;;;;;;;51.88;28.42;;;;;;;29.15;69.81;98175.13;5005896;28;20061;-71
2022/10/01 01:57:08;;;;;;;60.72;31.10;;;;;;;28.99;69.49;98175.81;5006245;28;20046;-72
2022/10/01 01:59:57;;;;;;;60.45;30.17;;;;;;;28.80;69.13;98178.41;4969515;28;20081;-73
2022/10/01 02:02:41;;;;;;;64.07;31.10;;;;;;;28.99;69.50;98183.31;4987038;28;20134;-73
2022/10/01 02:05:47;;;;;;;62.45;29.45;;;;;;;29.18;69.87;98182.72;4986765;28;20493;-73
2022/10/01 02:08:34;;;;;;;66.47;30.52;;;;;;;29.24;68.41;98184.06;4970770;28;20628;-73
2022/10/01 02:11:41;;;;;;;61.28;28.67;;;;;;;29.19;67.81;98185.09;4986474;28;20474;-72
2022/10/01 02:14:31;;;;;;;52.85;30.05;;;;;;;29.45;69.22;98195.72;4986348;28;20521;-72
2022/10/01 02:18:17;;;;;;;57.45;29.20;;;;;;;29.61;68.59;98192.19;4986036;28;20046;-73
2022/10/01 02:21:20;;;;;;;51.25;28.80;;;;;;;29.70;69.67;98203.91;4967740;28;20399;-73
2022/10/01 02:24:45;;;;;;;58.55;30.55;;;;;;;29.72;68.32;98215.44;4971219;28;20113;-72
2022/10/01 02:27:36;;;;;;;63.35;32.55;;;;;;;29.75;68.17;98206.47;4989187;28;20454;-72
2022/10/01 02:30:27;;;;;;;62.20;31.50;;;;;;;30.03;67.76;98219.44;4987350;28;20050;-73
2022/10/01 02:33:19;;;;;;;65.03;32.60;;;;;;;30.10;67.33;98213.28;4967155;28;20407;-72
2022/10/01 02:36:07;;;;;;;48.58;28.25;;;;;;;30.24;65.81;98217.19;4979040;28;20108;-72
2022/10/01 02:39:00;;;;;;;49.70;29.05;;;;;;;30.38;65.74;98222.34;4986301;28;20050;-73
2022/10/01 02:41:44;;;;;;;49.67;26.98;;;;;;;30.21;65.61;98228.19;4989200;28;20125;-72
2022/10/01 02:44:41;;;;;;;44.38;26.17;;;;;;;30.12;64.90;98225.59;4986376;28;20054;-73
2022/10/01 02:47:43;;;;;;;44.03;26.25;;;;;;;30.45;64.68;98224.47;4960149;28;20081;-73
2022/10/01 02:50:25;;;;;;;43.65;26.52;;;;;;;30.67;64.67;98223.03;4979731;28;20097;-73
2022/10/01 02:53:39;;;;;;;44.72;25.95;;;;;;;30.54;64.27;98229.84;4986268;28;20066;-73
2022/10/01 02:59:39;;;;;;;55.90;28.30;;;;;;;30.45;64.14;98230.81;4966896;28;20050;-72
2022/10/01 03:02:28;;;;;;;47.05;27.05;;;;;;;30.67;64.59;98228.56;4952080;28;20058;-73
2022/10/01 03:05:10;;;;;;;46.20;28.30;;;;;;;30.81;65.14;98228.09;4970170;28;20487;-72
2022/10/01 03:07:59;;;;;;;48.28;27.65;;;;;;;30.95;63.94;98228.44;4986300;28;20130;-73
2022/10/01 03:10:41;;;;;;;62.58;30.05;;;;;;;30.90;62.44;98225.97;4985202;28;20046;-74
2022/10/01 03:13:30;;;;;;;49.78;28.63;;;;;;;30.87;63.18;98221.09;4985648;28;20466;-73
2022/10/01 03:16:12;;;;;;;51.33;29.33;;;;;;;30.91;62.76;98226.75;4982692;28;20335;-73
2022/10/01 03:19:01;;;;;;;50.80;30.20;;;;;;;31.00;61.52;98222.63;4964788;28;20130;-73
2022/10/01 03:21:43;;;;;;;53.10;30.15;;;;;;;31.02;62.54;98225.81;4949536;28;20134;-72
2022/10/01 03:24:32;;;;;;;54.15;29.33;;;;;;;31.14;61.14;98224.88;4971140;28;20403;-74
2022/10/01 03:27:14;;;;;;;48.50;26.73;;;;;;;31.07;61.98;98235.84;4985464;28;20061;-73
2022/10/01 03:30:03;;;;;;;50.05;26.92;;;;;;;31.22;62.03;98231.38;4986878;28;20053;-73
2022/10/01 03:32:46;;;;;;;52.13;27.33;;;;;;;31.49;61.59;98231.56;4985473;28;20046;-72
2022/10/01 03:35:35;;;;;;;44.63;25.80;;;;;;;31.19;60.69;98234.91;4970221;28;20057;-72
2022/10/01 03:38:30;;;;;;;56.65;27.55;;;;;;;31.84;60.04;98233.47;4986282;28;20057;-73
2022/10/01 03:41:05;;;;;;;44.60;24.35;;;;;;;31.78;59.67;98242.09;4985500;28;20070;-73
2022/10/01 03:43:54;;;;;;;39.00;23.33;;;;;;;31.84;57.48;98242.59;4986323;28;20098;-73
2022/10/01 03:46:40;;;;;;;32.38;21.85;;;;;;;31.85;57.04;98237.84;4987110;28;20038;-73
2022/10/01 03:49:29;;;;;;;43.10;21.33;;;;;;;32.12;57.62;98235.97;4989738;28;20070;-73
2022/10/01 03:52:19;;;;;;;39.42;23.20;;;;;;;32.26;56.97;98244.56;4989289;28;20046;-73
2022/10/01 03:55:01;;;;;;;39.72;22.17;;;;;;;32.15;56.29;98246.34;4972414;28;20889;-71
2022/10/01 03:57:57;;;;;;;38.08;21.45;;;;;;;32.38;56.65;98244.38;4990915;28;20038;-72
2022/10/01 04:00:48;;;;;;;36.90;21.05;;;;;;;32.45;55.52;98246.47;4989006;28;20358;-71
2022/10/01 04:03:38;;;;;;;35.95;19.67;;;;;;;32.47;57.50;98246.91;4973952;28;20066;-72
2022/10/01 04:06:22;;;;;;;43.17;21.02;;;;;;;32.60;55.71;98247.56;4993272;28;20041;-72
2022/10/01 04:09:11;;;;;;;41.83;20.90;;;;;;;32.61;56.42;98237.22;5008641;28;20057;-71
2022/10/01 04:11:53;;;;;;;35.67;20.40;;;;;;;32.72;54.65;98249.31;5004735;28;20141;-72
2022/10/01 04:14:43;;;;;;;49.85;20.70;;;;;;;33.02;55.23;98245.78;4966302;28;20050;-72
2022/10/01 04:17:25;;;;;;;33.47;18.60;;;;;;;33.27;53.28;98246.97;4968508;28;20478;-72
2022/10/01 04:20:15;;;;;;;42.03;18.80;;;;;;;33.60;52.37;98252.94;4946848;28;20054;-72
2022/10/01 04:23:04;;;;;;;39.05;19.20;;;;;;;33.71;53.39;98254.69;4969924;28;20114;-72
2022/10/01 04:25:53;;;;;;;39.72;17.33;;;;;;;33.70;52.55;98250.28;4984741;28;20043;-72
2022/10/01 04:28:35;;;;;;;36.03;16.98;;;;;;;34.02;51.76;98247.06;4988720;28;20129;-72
2022/10/01 04:31:24;;;;;;;37.95;17.58;;;;;;;34.25;48.96;98254.47;4989456;28;20117;-71
2022/10/01 04:34:07;;;;;;;30.38;16.00;;;;;;;35.07;48.87;98257.13;4969500;28;20046;-75
2022/10/01 04:36:56;;;;;;;30.08;15.15;;;;;;;35.05;48.13;98251.13;4969035;28;20047;-76
2022/10/01 04:39:45;;;;;;;41.08;17.00;;;;;;;35.59;45.73;98252.22;4969489;28;20117;-73
2022/10/01 04:42:34;;;;;;;24.67;14.90;;;;;;;35.37;47.09;98256.94;5005826;28;20426;-74
2022/10/01 04:45:16;;;;;;;23.40;13.85;;;;;;;35.77;45.39;98257.09;5006847;28;20426;-74
2022/10/01 04:48:05;;;;;;;32.03;14.55;;;;;;;36.04;45.33;98257.56;5004406;28;20108;-74
2022/10/01 04:50:47;;;;;;;28.50;13.57;;;;;;;36.25;45.12;98254.84;4934618;28;20047;-75
2022/10/01 04:53:36;;;;;;;32.28;13.57;;;;;;;36.65;43.51;98249.28;4984825;28;20050;-75
2022/10/01 04:56:18;;;;;;;27.05;14.82;;;;;;;36.34;43.82;98262.81;4985093;28;20046;-75
2022/10/01 04:59:13;;;;;;;31.35;14.43;;;;;;;36.80;43.96;98255.66;4986143;28;20046;-76
2022/10/01 05:02:02;;;;;;;35.08;17.65;;;;;;;36.88;43.28;98251.66;4984202;28;20046;-74
2022/10/01 05:04:51;;;;;;;36.72;16.73;;;;;;;37.02;45.09;98248.03;4985729;28;20053;-74
2022/10/01 05:07:34;;;;;;;40.80;16.08;;;;;;;36.26;44.83;98250.84;4986734;28;20077;-74
2022/10/01 05:10:27;;;;;;;41.30;14.48;;;;;;;36.76;42.58;98246.47;4985613;28;20070;-73
2022/10/01 05:13:09;;;;;;;33.65;15.60;;;;;;;36.81;44.46;98243.28;4986272;28;20058;-74
2022/10/01 05:16:01;;;;;;;30.65;14.35;;;;;;;36.58;45.86;98240.88;4988050;28;20754;-71
2022/10/01 05:18:43;;;;;;;37.13;14.10;;;;;;;36.48;45.91;98250.88;4987458;28;20049;-70
2022/10/01 05:21:32;;;;;;;31.92;16.48;;;;;;;36.87;49.74;98243.66;4986257;28;20065;-70
2022/10/01 05:24:24;;;;;;;37.00;15.30;;;;;;;37.05;46.27;98236.03;4987196;28;20062;-71
2022/10/01 05:27:14;;;;;;;38.45;14.50;;;;;;;37.25;43.37;98239.22;4968038;28;20078;-72
2022/10/01 05:29:56;;;;;;;39.58;15.75;;;;;;;36.60;44.57;98235.69;4968971;28;20073;-72
2022/10/01 05:32:45;;;;;;;33.58;16.20;;;;;;;36.29;46.96;98238.09;4981941;28;20552;-71
2022/10/01 05:35:28;;;;;;;30.45;15.93;;;;;;;36.62;45.87;98233.28;4986840;28;20042;-71
2022/10/01 05:38:17;;;;;;;32.95;14.75;;;;;;;36.39;46.25;98228.09;4999245;28;20529;-72
2022/10/01 05:40:59;;;;;;;34.97;14.48;;;;;;;36.23;42.22;98234.06;4990086;28;20042;-75
2022/10/01 05:43:48;;;;;;;24.83;12.93;;;;;;;36.81;44.64;98229.28;5006424;28;20049;-74
2022/10/01 05:46:31;;;;;;;26.85;12.23;;;;;;;37.06;42.29;98223.66;5000746;28;20540;-74
2022/10/01 05:49:20;;;;;;;25.80;13.13;;;;;;;36.58;42.14;98221.31;5005930;28;20052;-74
2022/10/01 05:52:03;;;;;;;28.67;12.60;;;;;;;36.94;42.47;98218.50;4971059;28;20054;-75
2022/10/01 05:54:52;;;;;;;32.97;13.55;;;;;;;37.11;44.38;98220.44;4982705;28;20436;-75
2022/10/01 05:57:34;;;;;;;34.40;13.68;;;;;;;37.57;42.02;98213.88;4978780;28;20061;-73
2022/10/01 06:00:23;;;;;;;33.72;13.90;;;;;;;37.37;41.37;98209.97;4990187;28;20473;-74
2022/10/01 06:03:07;;;;;;;23.38;12.15;;;;;;;37.18;41.40;98202.84;4990159;28;20042;-71
2022/10/01 06:05:56;;;;;;;27.95;12.40;;;;;;;36.93;41.13;98208.50;4982263;28;20053;-73
2022/10/01 06:08:38;;;;;;;25.02;12.10;;;;;;;37.20;41.09;98195.66;4978531;28;20174;-74
2022/10/01 06:11:27;;;;;;;21.23;11.23;;;;;;;37.19;41.78;98185.66;4979429;28;20144;-72
2022/10/01 06:14:09;;;;;;;32.50;12.45;;;;;;;37.00;41.92;98197.28;4970745;28;20054;-72
2022/10/01 06:17:01;;;;;;;29.30;11.27;;;;;;;36.91;40.58;98194.13;4985813;28;20121;-72
2022/10/01 06:19:43;;;;;;;26.45;11.68;;;;;;;37.00;40.18;98186.88;4983370;28;20157;-73
2022/10/01 06:22:32;;;;;;;24.88;11.27;;;;;;;36.91;44.29;98188.53;4972725;28;20050;-71
2022/10/01 06:25:15;;;;;;;19.80;9.63;;;;;;;37.00;37.88;98172.91;4971430;28;20046;-71
2022/10/01 06:28:05;;;;;;;21.55;8.50;;;;;;;36.88;41.18;98172.53;4983754;28;20038;-70
2022/10/01 06:30:54;;;;;;;20.92;10.45;;;;;;;36.73;41.88;98171.81;4968237;28;20051;-71
2022/10/01 06:33:43;;;;;;;27.60;11.00;;;;;;;36.71;43.12;98169.41;4989140;28;20133;-72
2022/10/01 06:36:25;;;;;;;24.95;11.60;;;;;;;37.19;43.99;98154.88;4969223;28;20070;-71
2022/10/01 06:39:14;;;;;;;22.90;12.05;;;;;;;37.43;44.08;98152.34;4986532;28;20177;-70
2022/10/01 06:41:56;;;;;;;24.20;11.43;;;;;;;37.06;41.59;98150.91;4986278;28;20586;-70
2022/10/01 06:44:45;;;;;;;30.17;10.27;;;;;;;36.69;40.25;98143.84;4986864;28;20042;-71
2022/10/01 06:47:34;;;;;;;24.73;10.93;;;;;;;37.11;45.89;98135.69;4986416;28;20050;-71
2022/10/01 06:50:23;;;;;;;24.83;10.95;;;;;;;36.74;38.84;98121.03;4985869;28;20052;-73
2022/10/01 06:53:05;;;;;;;19.95;10.40;;;;;;;37.14;40.25;98124.53;4986946;28;20038;-71
2022/10/01 06:55:54;;;;;;;33.70;10.63;;;;;;;37.09;41.50;98118.53;4987632;28;20038;-71
2022/10/01 06:58:36;;;;;;;28.95;10.70;;;;;;;36.33;41.92;98115.13;4990465;28;20081;-72
2022/10/01 07:01:25;;;;;;;29.42;10.80;;;;;;;36.27;41.01;98111.97;4986175;28;20133;-68
2022/10/01 07:04:20;;;;;;;22.02;10.07;;;;;;;36.95;39.14;98113.78;4985834;28;20046;-68
2022/10/01 07:06:56;;;;;;;22.20;10.73;;;;;;;36.73;42.96;98107.50;4985423;28;20050;-67
2022/10/01 07:09:51;;;;;;;25.80;11.60;;;;;;;36.79;40.85;98103.88;4985937;28;20142;-68
2022/10/01 07:12:27;;;;;;;20.70;10.18;;;;;;;36.95;41.31;98103.41;4985921;28;20101;-69
2022/10/01 07:15:18;;;;;;;30.42;10.43;;;;;;;36.86;39.40;98091.06;4936742;28;20054;-70
2022/10/01 07:18:10;;;;;;;21.02;10.52;;;;;;;37.06;43.54;98092.16;4970920;28;20046;-72
2022/10/01 07:20:52;;;;;;;23.05;10.05;;;;;;;36.23;40.83;98092.41;4967776;28;20141;-72
2022/10/01 07:23:42;;;;;;;33.03;10.65;;;;;;;36.71;42.83;98091.13;4964146;28;20050;-71
2022/10/01 07:26:38;;;;;;;25.40;10.48;;;;;;;37.06;38.72;98082.97;4982399;28;20054;-67
2022/10/01 07:29:13;;;;;;;31.20;9.95;;;;;;;36.93;39.94;98074.25;4969954;28;20489;-71
2022/10/01 07:32:07;;;;;;;29.25;10.02;;;;;;;36.26;42.95;98072.03;4986190;28;20129;-71
2022/10/01 07:34:49;;;;;;;19.63;10.80;;;;;;;36.60;42.86;98060.38;4986707;28;20046;-69
2022/10/01 07:37:44;;;;;;;21.80;10.60;;;;;;;36.40;39.62;98050.84;4987823;28;20133;-70
2022/10/01 07:40:20;;;;;;;21.73;9.85;;;;;;;36.66;43.03;98046.78;4988102;28;20074;-70
2022/10/01 07:43:09;;;;;;;21.50;10.38;;;;;;;36.62;39.96;98043.19;4988762;28;20113;-70
2022/10/01 07:45:53;;;;;;;22.75;10.38;;;;;;;36.89;38.23;98039.91;4987743;28;20616;-71
2022/10/01 07:48:45;;;;;;;18.88;10.25;;;;;;;36.58;38.35;98036.81;4989221;28;20112;-72
2022/10/01 07:51:35;;;;;;;28.13;10.10;;;;;;;36.72;39.83;98039.56;4980622;28;20054;-72
2022/10/01 07:54:25;;;;;;;30.90;11.05;;;;;;;36.68;42.22;98033.22;4986198;28;20508;-71
2022/10/01 07:57:07;;;;;;;27.83;10.60;;;;;;;36.42;41.18;98035.28;4986738;28;20549;-70
2022/10/01 08:00:03;;;;;;;22.98;10.50;;;;;;;36.76;39.23;98022.78;4986149;28;20493;-70
2022/10/01 08:02:38;;;;;;;25.85;10.50;;;;;;;36.31;40.36;98026.13;4985047;28;20141;-72
2022/10/01 08:05:34;;;;;;;16.70;10.07;;;;;;;36.63;41.32;98019.63;4967294;28;20042;-69
2022/10/01 08:08:23;;;;;;;28.98;9.90;;;;;;;36.62;41.29;98009.66;4630602;28;10001347;-79
2022/10/01 08:11:08;;;;;;;20.15;9.82;;;;;;;36.95;41.53;98008.31;4967081;28;20114;-72
2022/10/01 08:13:57;;;;;;;21.67;11.30;;;;;;;36.87;40.70;98001.16;4964294;28;20106;-76
2022/10/01 08:16:46;;;;;;;27.73;11.60;;;;;;;36.74;38.65;97997.25;4956179;28;20050;-75
2022/10/01 08:19:36;;;;;;;20.23;9.90;;;;;;;36.71;39.37;97990.47;4958468;28;20544;-76
2022/10/01 08:22:18;;;;;;;25.60;10.75;;;;;;;36.91;37.22;97987.16;4985547;28;20141;-74
2022/10/01 08:25:07;;;;;;;31.75;11.02;;;;;;;37.04;39.92;97988.28;4971196;28;20133;-77
2022/10/01 08:27:49;;;;;;;31.52;10.98;;;;;;;36.63;40.07;97978.50;4969543;28;20042;-74
2022/10/01 08:30:38;;;;;;;22.25;10.13;;;;;;;36.74;38.38;97972.88;4973204;28;20173;-76
2022/10/01 08:33:27;;;;;;;18.73;10.43;;;;;;;36.56;38.41;97974.94;4982839;28;20153;-74
2022/10/01 08:36:11;;;;;;;19.93;10.03;;;;;;;36.53;36.58;97972.94;4946359;28;20057;-76
2022/10/01 08:39:01;;;;;;;22.27;9.57;;;;;;;36.84;36.68;97962.81;4980302;28;20061;-71
2022/10/01 08:42:06;;;;;;;16.65;8.55;;;;;;;36.87;38.57;97966.81;4984742;28;20057;-72
2022/10/01 08:45:00;;;;;;;26.17;10.20;;;;;;;36.83;37.37;97950.84;4944674;28;20043;-72
2022/10/01 08:47:48;;;;;;;20.13;9.70;;;;;;;36.60;38.76;97951.34;4985119;28;20049;-75
2022/10/01 08:50:59;;;;;;;19.92;9.55;;;;;;;36.57;39.43;97934.59;4985885;28;20058;-72
2022/10/01 08:53:43;;;;;;;;;;;;;;;36.44;37.95;97937.06;4968657;28;20819;-75
2022/10/01 08:56:44;;;;;;;23.65;9.70;;;;;;;36.27;39.39;97933.16;4968692;28;19951;-75
2022/10/01 09:00:07;;;;;;;24.20;9.80;;;;;;;36.52;38.91;97926.66;4948874;28;20130;-74
2022/10/01 09:02:57;;;;;;;30.95;9.82;;;;;;;36.06;38.28;97920.81;4890466;29;20062;-74
2022/10/01 09:05:38;;;;;;;;;;;;;;;36.43;37.42;97919.50;4904445;29;20056;-77
2022/10/01 09:09:00;;;;;;;20.25;9.57;;;;;;;36.62;38.52;97914.59;4948789;28;19930;-74
2022/10/01 09:12:14;;;;;;;28.30;10.02;;;;;;;36.71;40.75;97917.78;4968218;28;20768;-74
2022/10/01 09:15:29;;;;;;;19.15;9.63;;;;;;;36.55;36.96;97909.06;4963996;28;20050;-73
2022/10/01 09:18:42;;;;;;;20.67;9.27;;;;;;;36.80;37.13;97904.16;4984764;28;20395;-72
2022/10/01 09:21:46;;;;;;;27.38;9.82;;;;;;;36.49;36.90;97900.28;4986195;28;20046;-68
2022/10/01 09:24:52;;;;;;;19.40;7.65;;;;;;;36.81;36.94;97894.53;4979112;28;20134;-70
2022/10/01 09:27:44;;;;;;;24.15;8.55;;;;;;;36.02;35.54;97889.31;4986457;28;20046;-69
2022/10/01 09:30:28;;;;;;;21.63;8.68;;;;;;;36.45;36.47;97889.13;4981202;28;20054;-72
2022/10/01 09:33:25;;;;;;;24.92;8.07;;;;;;;36.69;36.76;97883.84;4987533;28;20132;-69
2022/10/01 09:36:51;;;;;;;17.88;6.88;;;;;;;36.60;34.08;97883.47;4961966;28;20082;-68
2022/10/01 09:39:39;;;;;;;10.90;6.57;;;;;;;36.67;37.68;97877.06;4987405;28;20512;-66
2022/10/01 09:42:29;;;;;;;19.27;7.43;;;;;;;36.66;34.21;97870.69;4982206;28;20474;-70
2022/10/01 09:45:12;;;;;;;26.80;7.40;;;;;;;36.49;35.79;97866.75;4981797;28;20141;-73
2022/10/01 09:48:25;;;;;;;21.55;7.18;;;;;;;36.30;37.34;97868.06;4986979;28;20050;-69
2022/10/01 09:51:12;;;;;;;12.10;6.90;;;;;;;36.54;35.42;97865.56;4987126;28;20137;-67
2022/10/01 09:54:17;;;;;;;17.23;7.40;;;;;;;36.33;35.01;97864.47;4988092;28;20042;-70
2022/10/01 09:57:06;;;;;;;15.13;7.57;;;;;;;36.63;36.37;97860.28;4980524;28;20141;-70
2022/10/01 10:00:13;;;;;;;22.65;8.32;;;;;;;36.26;36.52;97858.91;4966205;28;20060;-76
2022/10/01 10:02:50;;;;;;;19.60;8.05;;;;;;;36.37;35.77;97848.47;4985720;28;20046;-68
2022/10/01 10:05:45;;;;;;;22.40;8.40;;;;;;;36.35;35.59;97853.69;4980538;28;20050;-68
2022/10/01 10:08:44;;;;;;;16.38;7.97;;;;;;;36.24;37.23;97852.94;4985291;28;20050;-73
2022/10/01 10:11:33;;;;;;;16.13;7.70;;;;;;;35.85;36.09;97837.91;4965070;28;20070;-73
2022/10/01 10:14:27;;;;;;;16.52;8.35;;;;;;;36.40;37.30;97842.06;4971443;28;20053;-70
2022/10/01 10:17:15;;;;;;;14.35;7.75;;;;;;;36.31;36.41;97838.94;5001444;28;20401;-70
2022/10/01 10:20:04;;;;;;;20.77;8.18;;;;;;;36.17;36.97;97831.44;4987529;28;20169;-72
2022/10/01 10:22:46;;;;;;;19.70;7.65;;;;;;;36.13;40.81;97829.81;4988395;28;20121;-73
2022/10/01 10:25:37;;;;;;;18.00;8.52;;;;;;;36.02;36.14;97825.09;4985503;28;20112;-67
2022/10/01 10:28:22;;;;;;;18.70;7.97;;;;;;;36.16;39.64;97821.41;4984665;28;20217;-70
2022/10/01 10:31:23;;;;;;;27.80;10.23;;;;;;;35.90;38.37;97819.94;4956891;28;20055;-73
2022/10/01 10:34:22;;;;;;;18.48;8.57;;;;;;;35.91;39.70;97818.75;4982671;28;20073;-72
2022/10/01 10:37:20;;;;;;;20.92;9.02;;;;;;;35.73;40.95;97809.63;4976341;28;20518;-70
2022/10/01 10:40:30;;;;;;;18.80;8.88;;;;;;;35.45;40.28;97812.09;4978066;28;20116;-73
2022/10/01 10:43:15;;;;;;;19.80;8.90;;;;;;;35.34;38.65;97804.97;4977460;28;20430;-72
2022/10/01 10:46:07;;;;;;;20.80;8.57;;;;;;;35.78;39.95;97809.22;4977344;28;20406;-73
2022/10/01 10:52:07;;;;;;;14.60;8.00;;;;;;;35.86;39.20;97796.81;4938678;23;20052;-62
2022/10/01 10:54:58;;;;;;;16.83;8.73;;;;;;;35.74;39.29;97797.28;4906780;29;20151;-64
2022/10/01 10:57:40;;;;;;;26.38;9.18;;;;;;;35.76;40.96;97797.69;4906969;29;20055;-64
2022/10/01 11:00:35;;;;;;;26.00;8.77;;;;;;;35.58;40.37;97800.47;4904875;29;20604;-64
2022/10/01 11:03:16;;;;;;;22.58;8.68;;;;;;;35.39;40.57;97796.97;4904441;29;20475;-63
2022/10/01 11:06:20;;;;;;;17.65;8.35;;;;;;;35.70;39.93;97793.72;4911653;29;20599;-63
2022/10/01 11:09:06;;;;;;;26.80;8.93;;;;;;;35.61;38.17;97794.91;4906243;29;20055;-64
2022/10/01 11:12:08;;;;;;;17.80;8.60;;;;;;;35.61;39.98;97797.69;4903958;29;20067;-64
2022/10/01 11:15:13;;;;;;;18.77;7.93;;;;;;;35.57;39.39;97796.91;4887986;29;20151;-64
2022/10/01 11:18:19;;;;;;;22.38;7.80;;;;;;;35.35;40.35;97789.78;4877375;29;20052;-65
2022/10/01 11:21:41;;;;;;;15.07;8.20;;;;;;;35.43;40.20;97791.38;4892228;29;20052;-66
2022/10/01 11:25:04;;;;;;;25.38;8.02;;;;;;;35.39;40.27;97793.38;4906194;29;20059;-63
2022/10/01 11:28:21;;;;;;;18.17;8.20;;;;;;;35.32;40.92;97790.63;4851866;29;20049;-64
2022/10/01 11:31:36;;;;;;;17.83;8.15;;;;;;;35.20;42.52;97792.63;4906287;29;20571;-65
2022/10/01 11:34:48;;;;;;;20.98;8.57;;;;;;;35.05;42.07;97789.03;4905943;29;20080;-63
2022/10/01 11:38:01;;;;;;;18.35;8.07;;;;;;;35.02;41.09;97784.25;4903027;29;20059;-65
2022/10/01 11:40:49;;;;;;;12.70;6.97;;;;;;;35.08;41.42;97781.84;4904654;29;20143;-65
2022/10/01 11:44:08;;;;;;;18.67;7.72;;;;;;;35.05;41.44;97783.44;4904273;29;20051;-65
2022/10/01 11:47:19;;;;;;;16.98;8.30;;;;;;;34.96;43.32;97776.69;4905110;29;20055;-63
2022/10/01 11:50:37;;;;;;;18.55;7.72;;;;;;;34.68;44.19;97776.31;4889280;29;20072;-67
2022/10/01 11:53:37;;;;;;;20.48;7.95;;;;;;;34.58;44.26;97776.28;4905041;29;20052;-64
2022/10/01 11:59:43;;;;;;;18.05;8.70;;;;;;;34.41;42.72;97773.06;4904929;29;20510;-64
2022/10/01 12:03:03;;;;;;;20.48;7.78;;;;;;;34.46;41.40;97772.69;4901385;29;20622;-64
2022/10/01 12:05:55;;;;;;;25.33;8.13;;;;;;;34.56;42.38;97775.88;4903247;29;20544;-64
2022/10/01 12:08:41;;;;;;;28.30;9.02;;;;;;;34.63;42.98;97778.69;4913443;29;20555;-64
2022/10/01 12:11:51;;;;;;;31.88;9.93;;;;;;;34.41;46.50;97772.28;4915184;29;20458;-65
2022/10/01 12:14:50;;;;;;;15.52;9.13;;;;;;;34.20;47.01;97771.03;4919590;29;20060;-65
2022/10/01 12:17:44;;;;;;;37.60;12.05;;;;;;;34.03;49.29;97780.13;4914128;29;20147;-64
2022/10/01 12:20:40;;;;;;;20.30;9.13;;;;;;;33.84;50.12;97768.16;4917136;29;20118;-65
2022/10/01 12:23:28;;;;;;;25.48;10.75;;;;;;;33.79;49.20;97781.66;4911161;29;20496;-65
2022/10/01 12:26:49;;;;;;;24.55;10.40;;;;;;;33.72;50.29;97777.63;4914803;29;20083;-65
2022/10/01 12:29:43;;;;;;;24.30;10.05;;;;;;;33.59;48.06;97776.34;4880838;29;20379;-65
2022/10/01 12:32:57;;;;;;;25.15;9.90;;;;;;;33.80;47.55;97780.44;4914917;29;20056;-65
2022/10/01 12:36:15;;;;;;;;;;;;;;;33.74;49.82;97780.03;4913269;29;20448;-64
2022/10/01 12:39:25;;;;;;;23.13;9.40;;;;;;;33.59;48.99;97787.47;4847458;29;19926;-65
2022/10/01 12:42:30;;;;;;;24.17;10.77;;;;;;;33.52;50.84;97788.25;4902016;29;20060;-65
2022/10/01 12:45:34;;;;;;;23.40;10.23;;;;;;;33.39;50.25;97792.56;4897029;29;20058;-65
2022/10/01 12:48:43;;;;;;;24.05;11.15;;;;;;;33.30;49.87;97790.09;4906381;29;20048;-65
2022/10/01 12:52:10;;;;;;;26.55;10.68;;;;;;;33.28;49.90;97786.91;4871136;29;20060;-65
2022/10/01 12:55:20;;;;;;;38.50;13.73;;;;;;;33.19;55.11;97794.84;4914460;29;20387;-66
2022/10/01 12:58:33;;;;;;;23.70;11.50;;;;;;;33.02;52.67;97789.88;4912572;29;20094;-65
2022/10/01 13:01:21;;;;;;;22.17;11.25;;;;;;;32.94;54.71;97789.88;4900912;29;20574;-65
2022/10/01 13:04:46;;;;;;;27.98;12.63;;;;;;;32.88;53.94;97799.72;4916591;29;20662;-65
2022/10/01 13:07:35;;;;;;;34.05;12.82;;;;;;;32.81;54.01;97802.47;4879487;29;20075;-65
2022/10/01 13:11:01;;;;;;;28.13;14.45;;;;;;;32.87;54.11;97798.13;4918431;29;20147;-65
2022/10/01 13:13:45;;;;;;;34.95;16.83;;;;;;;32.83;56.05;97797.31;4885522;29;20056;-66
2022/10/01 13:16:54;;;;;;;27.42;17.33;;;;;;;32.70;53.45;97798.78;4907385;29;20055;-64
2022/10/01 13:19:50;;;;;;;32.87;18.17;;;;;;;32.81;55.56;97801.66;4896618;29;20056;-63
2022/10/01 13:23:13;;;;;;;37.15;18.58;;;;;;;32.75;55.42;97806.75;4907645;29;20112;-64
2022/10/01 13:25:58;;;;;;;35.40;19.23;;;;;;;32.68;55.80;97809.50;4911505;29;20055;-64
2022/10/01 13:29:06;;;;;;;33.03;18.00;;;;;;;32.68;55.86;97815.03;4912827;29;20603;-64